createdAt,value
2023-03-17T00:01:51.667Z,6.07
2023-03-17T00:04:19.721Z,6.08
2023-03-17T00:06:46.734Z,6.03
2023-03-17T00:09:15.111Z,6.05
2023-03-17T00:11:43.115Z,6.04
2023-03-17T00:14:10.342Z,6.12
2023-03-17T00:16:39.266Z,6.06
2023-03-17T00:19:06.874Z,6.10
2023-03-17T00:21:35.964Z,6.11
2023-03-17T00:24:03.376Z,6.04
2023-03-17T00:26:30.109Z,6.05
2023-03-17T00:28:57.052Z,6.03
2023-03-17T00:31:29.867Z,5.99
2023-03-17T00:33:57.289Z,5.88
2023-03-17T00:36:26.681Z,5.90
2023-03-17T00:38:53.381Z,5.87
2023-03-17T00:41:20.419Z,5.92
2023-03-17T00:43:47.296Z,5.90
2023-03-17T00:46:22.073Z,5.86
2023-03-17T00:48:48.927Z,5.86
2023-03-17T00:51:16.655Z,5.85
2023-03-17T00:53:44.212Z,6.00
2023-03-17T00:56:16.087Z,6.00
2023-03-17T00:58:43.196Z,5.87
2023-03-17T01:01:10.217Z,5.83
2023-03-17T01:03:37.432Z,5.97
2023-03-17T01:06:06.005Z,5.86
2023-03-17T01:08:32.901Z,5.82
2023-03-17T01:10:59.788Z,5.76
2023-03-17T01:13:26.550Z,5.74
2023-03-17T01:15:53.335Z,5.83
2023-03-17T01:18:21.625Z,5.84
2023-03-17T01:20:48.956Z,5.83
2023-03-17T01:23:15.774Z,5.92
2023-03-17T01:25:43.440Z,5.95
2023-03-17T01:28:18.244Z,5.93
2023-03-17T01:30:45.518Z,5.86
2023-03-17T01:33:13.307Z,5.85
2023-03-17T01:35:41.552Z,5.87
2023-03-17T01:38:08.802Z,5.86
2023-03-17T01:40:44.346Z,5.83
2023-03-17T01:43:17.496Z,5.87
2023-03-17T01:46:21.612Z,5.88
2023-03-17T01:49:15.746Z,5.75
2023-03-17T01:52:00.479Z,5.83
2023-03-17T01:54:29.910Z,5.73
2023-03-17T01:57:01.285Z,5.69
2023-03-17T01:59:33.955Z,5.59
2023-03-17T02:02:07.684Z,5.55
2023-03-17T02:04:34.822Z,5.56
2023-03-17T02:07:02.848Z,5.56
2023-03-17T02:09:29.733Z,5.51
2023-03-17T02:11:56.797Z,5.48
2023-03-17T02:14:23.926Z,5.56
2023-03-17T02:16:50.702Z,5.68
2023-03-17T02:19:17.418Z,5.63
2023-03-17T02:21:46.221Z,5.56
2023-03-17T02:24:17.797Z,5.68
2023-03-17T02:26:46.290Z,5.62
2023-03-17T02:29:13.250Z,5.65
2023-03-17T02:31:40.052Z,5.68
2023-03-17T02:34:07.032Z,5.69
2023-03-17T02:36:33.986Z,5.67
2023-03-17T02:39:01.733Z,5.66
2023-03-17T02:41:28.902Z,5.61
2023-03-17T02:43:55.928Z,5.60
2023-03-17T02:46:23.249Z,5.59
2023-03-17T02:48:50.108Z,5.54
2023-03-17T02:51:16.729Z,5.51
2023-03-17T02:53:43.434Z,5.51
2023-03-17T02:56:10.513Z,5.48
2023-03-17T02:58:37.137Z,5.49
2023-03-17T03:01:04.264Z,5.37
2023-03-17T03:03:31.288Z,5.29
2023-03-17T03:05:59.199Z,5.45
2023-03-17T03:08:27.344Z,5.42
2023-03-17T03:10:55.195Z,5.51
2023-03-17T03:13:22.998Z,5.50
2023-03-17T03:15:50.333Z,5.27
2023-03-17T03:18:17.372Z,5.21
2023-03-17T03:20:45.013Z,5.09
2023-03-17T03:23:12.608Z,5.16
2023-03-17T03:25:39.679Z,5.21
2023-03-17T03:28:08.365Z,5.08
2023-03-17T03:30:36.549Z,4.94
2023-03-17T03:33:06.119Z,5.00
2023-03-17T03:35:33.075Z,5.00
2023-03-17T03:38:00.575Z,5.02
2023-03-17T03:40:27.375Z,4.85
2023-03-17T03:42:54.388Z,4.85
2023-03-17T03:45:21.477Z,4.68
2023-03-17T03:47:48.130Z,4.60
2023-03-17T03:50:14.968Z,4.51
2023-03-17T03:52:41.798Z,4.59
2023-03-17T03:55:09.280Z,4.44
2023-03-17T03:57:36.119Z,4.50
2023-03-17T04:00:05.245Z,4.38
2023-03-17T04:02:32.192Z,4.22
2023-03-17T04:04:58.953Z,4.18
2023-03-17T04:07:26.013Z,4.27
2023-03-17T04:09:52.811Z,4.27
2023-03-17T04:12:19.521Z,4.29
2023-03-17T04:14:46.389Z,4.30
2023-03-17T04:17:13.501Z,4.27
2023-03-17T04:19:40.639Z,3.98
2023-03-17T04:22:09.106Z,3.87
2023-03-17T04:24:35.966Z,3.88
2023-03-17T04:27:05.884Z,3.97
2023-03-17T04:29:32.902Z,3.98
2023-03-17T04:32:00.088Z,4.07
2023-03-17T04:34:27.513Z,3.93
2023-03-17T04:36:54.452Z,3.86
2023-03-17T04:39:21.115Z,3.89
2023-03-17T04:41:47.860Z,3.77
2023-03-17T04:44:15.654Z,3.86
2023-03-17T04:46:42.439Z,3.68
2023-03-17T04:49:09.716Z,3.64
2023-03-17T04:51:37.084Z,3.50
2023-03-17T04:54:04.010Z,3.55
2023-03-17T04:56:32.002Z,3.42
2023-03-17T04:58:59.087Z,3.47
2023-03-17T05:01:25.768Z,3.47
2023-03-17T05:03:52.792Z,3.59
2023-03-17T05:06:19.489Z,3.52
2023-03-17T05:08:46.220Z,3.44
2023-03-17T05:11:13.555Z,3.44
2023-03-17T05:13:43.774Z,3.47
2023-03-17T05:16:11.261Z,3.52
2023-03-17T05:18:38.507Z,3.57
2023-03-17T05:21:06.620Z,3.14
2023-03-17T05:23:34.728Z,3.23
2023-03-17T05:26:01.849Z,3.31
2023-03-17T05:28:28.682Z,3.13
2023-03-17T05:30:55.823Z,3.16
2023-03-17T05:33:23.252Z,3.12
2023-03-17T05:35:50.420Z,3.16
2023-03-17T05:38:17.348Z,3.21
2023-03-17T05:40:44.590Z,3.11
2023-03-17T05:43:11.496Z,3.19
2023-03-17T05:45:38.238Z,3.10
2023-03-17T05:48:05.074Z,3.13
2023-03-17T05:50:32.172Z,3.10
2023-03-17T05:52:59.200Z,3.22
2023-03-17T05:55:25.938Z,3.16
2023-03-17T05:57:52.744Z,3.24
2023-03-17T06:00:21.668Z,3.26
2023-03-17T06:02:48.544Z,3.19
2023-03-17T06:05:15.418Z,3.16
2023-03-17T06:07:52.872Z,3.17
2023-03-17T06:10:22.990Z,3.28
2023-03-17T06:12:49.812Z,3.44
2023-03-17T06:15:17.329Z,3.46
2023-03-17T06:17:44.450Z,3.56
2023-03-17T06:20:12.059Z,3.67
2023-03-17T06:22:46.292Z,3.79
2023-03-17T06:25:18.762Z,3.88
2023-03-17T06:34:59.992Z,4.25
2023-03-17T06:37:26.638Z,4.37
2023-03-17T06:39:53.539Z,4.51
2023-03-17T06:42:20.374Z,4.68
2023-03-17T06:44:47.402Z,4.74
2023-03-17T06:47:14.415Z,4.87
2023-03-17T06:49:41.307Z,5.12
2023-03-17T06:52:08.911Z,5.21
2023-03-17T06:54:36.790Z,5.26
2023-03-17T06:57:03.687Z,5.39
2023-03-17T06:59:30.915Z,5.52
2023-03-17T07:01:59.462Z,5.66
2023-03-17T07:04:26.249Z,5.82
2023-03-17T07:06:52.999Z,6.05
2023-03-17T07:09:19.935Z,6.20
2023-03-17T07:11:46.899Z,6.29
2023-03-17T07:14:14.047Z,6.30
2023-03-17T07:16:40.734Z,6.35
2023-03-17T07:19:07.624Z,6.31
2023-03-17T07:21:34.555Z,6.36
2023-03-17T07:24:01.812Z,6.32
2023-03-17T07:26:28.852Z,6.34
2023-03-17T07:28:56.192Z,6.37
2023-03-17T07:31:23.600Z,6.47
2023-03-17T07:33:51.086Z,6.52
2023-03-17T07:36:17.929Z,6.58
2023-03-17T07:38:44.577Z,6.69
2023-03-17T07:41:11.408Z,6.74
2023-03-17T07:43:38.765Z,6.81
2023-03-17T07:46:06.606Z,6.92
2023-03-17T07:48:33.692Z,7.05
2023-03-17T07:51:00.758Z,7.22
2023-03-17T07:53:27.473Z,7.35
2023-03-17T07:55:54.585Z,7.55
2023-03-17T07:58:22.036Z,7.64
2023-03-17T08:00:49.115Z,7.79
2023-03-17T08:03:15.970Z,7.92
2023-03-17T08:05:43.093Z,8.08
2023-03-17T08:08:10.852Z,8.22
2023-03-17T08:10:37.502Z,8.32
2023-03-17T08:13:04.830Z,8.39
2023-03-17T08:15:31.656Z,8.49
2023-03-17T08:17:58.302Z,8.62
2023-03-17T08:20:25.243Z,8.71
2023-03-17T08:22:51.947Z,8.80
2023-03-17T08:25:18.594Z,8.98
2023-03-17T08:27:45.242Z,9.14
2023-03-17T08:30:13.133Z,9.32
2023-03-17T08:32:39.899Z,9.39
2023-03-17T08:35:07.016Z,9.47
2023-03-17T08:37:33.853Z,9.56
2023-03-17T08:40:01.524Z,9.66
2023-03-17T08:42:28.311Z,9.84
2023-03-17T08:44:55.114Z,9.92
2023-03-17T08:47:22.021Z,10.04
2023-03-17T08:49:48.709Z,10.13
2023-03-17T08:52:16.576Z,10.20
2023-03-17T08:54:43.465Z,10.29
2023-03-17T08:57:10.140Z,10.42
2023-03-17T08:59:39.362Z,10.47
2023-03-17T09:02:06.003Z,10.49
2023-03-17T09:04:32.768Z,10.54
2023-03-17T09:07:03.657Z,10.66
2023-03-17T09:09:31.374Z,10.69
2023-03-17T09:11:58.086Z,10.80
2023-03-17T09:14:25.203Z,10.73
2023-03-17T09:16:52.942Z,10.90
2023-03-17T09:19:19.754Z,10.99
2023-03-17T09:21:47.554Z,11.21
2023-03-17T09:24:14.605Z,11.32
2023-03-17T09:26:41.895Z,11.47
2023-03-17T09:29:08.632Z,11.55
2023-03-17T09:31:39.153Z,11.54
2023-03-17T09:34:06.008Z,11.69
2023-03-17T09:36:33.717Z,11.74
2023-03-17T09:39:01.320Z,11.99
2023-03-17T09:41:51.678Z,11.93
2023-03-17T09:44:40.547Z,12.00
2023-03-17T09:47:37.054Z,12.10
2023-03-17T09:50:11.240Z,12.32
2023-03-17T09:52:38.851Z,12.28
2023-03-17T09:55:08.793Z,12.16
2023-03-17T09:57:38.185Z,12.20
2023-03-17T10:00:19.164Z,12.11
2023-03-17T10:02:46.408Z,12.24
2023-03-17T10:05:42.568Z,12.39
2023-03-17T10:08:34.046Z,12.37
2023-03-17T10:11:31.630Z,12.39
2023-03-17T10:14:03.768Z,12.34
2023-03-17T10:16:50.433Z,12.38
2023-03-17T10:19:22.434Z,12.40
2023-03-17T10:21:54.813Z,12.56
2023-03-17T10:24:22.440Z,12.55
2023-03-17T10:26:50.519Z,12.59
2023-03-17T10:29:24.095Z,12.62
2023-03-17T10:31:52.355Z,12.62
2023-03-17T10:34:20.422Z,12.61
2023-03-17T10:36:54.569Z,12.73
2023-03-17T10:39:24.193Z,12.68
2023-03-17T10:42:00.557Z,12.65
2023-03-17T10:44:39.702Z,12.79
2023-03-17T10:47:07.488Z,12.78
2023-03-17T10:49:37.928Z,12.90
2023-03-17T10:52:08.574Z,13.14
2023-03-17T10:54:37.208Z,13.14
2023-03-17T10:57:07.685Z,13.33
2023-03-17T10:59:44.549Z,13.47
2023-03-17T11:02:43.520Z,13.57
2023-03-17T11:05:23.220Z,13.58
2023-03-17T11:07:50.702Z,13.64
2023-03-17T11:10:24.061Z,13.64
2023-03-17T11:13:02.233Z,13.70
2023-03-17T11:15:34.202Z,13.85
2023-03-17T11:18:04.411Z,13.91
2023-03-17T11:20:48.564Z,14.02
2023-03-17T11:23:52.456Z,13.84
2023-03-17T11:26:48.953Z,13.81
2023-03-17T11:29:58.425Z,13.76
2023-03-17T11:32:29.624Z,13.75
2023-03-17T11:35:00.454Z,13.76
2023-03-17T11:37:53.309Z,13.68
2023-03-17T11:40:22.692Z,13.71
2023-03-17T11:43:23.353Z,13.68
2023-03-17T11:45:59.092Z,13.85
2023-03-17T11:49:01.465Z,13.84
2023-03-17T11:51:37.799Z,13.83
2023-03-17T11:54:10.893Z,13.96
2023-03-17T11:56:42.240Z,13.95
2023-03-17T11:59:17.980Z,13.94
2023-03-17T12:01:54.931Z,14.05
2023-03-17T12:04:51.528Z,14.09
2023-03-17T12:07:22.650Z,14.18
2023-03-17T12:10:24.272Z,14.33
2023-03-17T12:12:54.934Z,14.44
2023-03-17T12:15:29.695Z,14.55
2023-03-17T12:17:59.870Z,14.60
2023-03-17T12:20:33.507Z,14.62
2023-03-17T12:23:52.690Z,14.67
2023-03-17T12:26:32.187Z,14.79
2023-03-17T12:29:01.145Z,14.82
2023-03-17T12:31:34.388Z,14.86
2023-03-17T12:34:09.074Z,14.99
2023-03-17T12:36:38.394Z,15.04
2023-03-17T12:39:14.144Z,14.97
2023-03-17T12:42:18.249Z,15.08
2023-03-17T12:45:16.065Z,15.14
2023-03-17T12:48:15.437Z,15.02
2023-03-17T12:51:08.910Z,14.98
2023-03-17T12:53:40.726Z,14.93
2023-03-17T12:56:10.467Z,14.94
2023-03-17T12:58:44.419Z,14.87
2023-03-17T13:01:25.787Z,14.90
2023-03-17T13:03:59.120Z,14.92
2023-03-17T13:06:26.135Z,14.96
2023-03-17T13:08:53.462Z,14.86
2023-03-17T13:11:46.660Z,14.83
2023-03-17T13:14:39.684Z,14.85
2023-03-17T13:17:38.782Z,14.78
2023-03-17T13:20:13.348Z,14.76
2023-03-17T13:23:11.046Z,14.82
2023-03-17T13:26:01.136Z,14.72
2023-03-17T13:28:42.157Z,14.71
2023-03-17T13:31:10.077Z,14.74
2023-03-17T13:33:42.597Z,14.68
2023-03-17T13:36:23.072Z,14.55
2023-03-17T13:39:18.709Z,14.58
2023-03-17T13:42:31.960Z,14.60
2023-03-17T13:45:17.634Z,14.59
2023-03-17T13:47:46.102Z,14.62
2023-03-17T13:50:31.091Z,14.59
2023-03-17T13:53:02.567Z,14.65
2023-03-17T13:55:35.271Z,14.67
2023-03-17T13:58:33.460Z,14.73
2023-03-17T14:01:04.069Z,14.80
2023-03-17T14:03:44.033Z,14.86
2023-03-17T14:06:12.475Z,14.87
2023-03-17T14:08:51.686Z,14.79
2023-03-17T14:11:41.591Z,14.88
2023-03-17T14:14:26.124Z,14.88
2023-03-17T14:17:15.818Z,14.85
2023-03-17T14:20:00.097Z,14.92
2023-03-17T14:28:42.345Z,14.87
2023-03-17T14:31:21.972Z,14.84
2023-03-17T14:33:48.984Z,14.74
2023-03-17T14:36:16.246Z,14.78
2023-03-17T14:39:19.016Z,14.70
2023-03-17T14:41:45.803Z,14.62
2023-03-17T14:44:12.604Z,14.61
2023-03-17T14:46:41.355Z,14.59
2023-03-17T14:49:21.366Z,14.58
2023-03-17T14:51:50.317Z,14.54
2023-03-17T14:54:20.433Z,14.57
2023-03-17T14:56:49.335Z,14.64
2023-03-17T14:59:30.157Z,14.62
2023-03-17T15:01:58.854Z,14.58
2023-03-17T15:04:29.892Z,14.46
2023-03-17T15:07:01.601Z,14.46
2023-03-17T15:09:36.944Z,14.36
2023-03-17T15:12:19.279Z,14.39
2023-03-17T15:14:47.010Z,14.40
2023-03-17T15:17:19.433Z,14.36
2023-03-17T15:19:49.533Z,14.49
2023-03-17T15:22:30.453Z,14.42
2023-03-17T15:25:00.535Z,14.43
2023-03-17T15:27:27.946Z,14.39
2023-03-17T15:29:54.663Z,14.34
2023-03-17T15:32:23.942Z,14.33
2023-03-17T15:34:52.985Z,14.33
2023-03-17T15:37:25.637Z,14.21
2023-03-17T15:39:53.246Z,14.28
2023-03-17T15:42:21.927Z,14.26
2023-03-17T15:44:48.592Z,14.22
2023-03-17T15:47:17.469Z,14.33
2023-03-17T15:49:45.179Z,14.27
2023-03-17T15:52:26.506Z,14.31
2023-03-17T15:54:55.015Z,14.28
2023-03-17T15:57:22.120Z,14.28
2023-03-17T15:59:49.156Z,14.22
2023-03-17T16:02:25.636Z,14.17
2023-03-17T16:04:52.694Z,14.11
2023-03-17T16:07:19.688Z,14.03
2023-03-17T16:09:46.477Z,14.06
2023-03-17T16:12:13.965Z,14.03
2023-03-17T16:14:41.098Z,14.07
2023-03-17T16:17:17.709Z,14.06
2023-03-17T16:19:44.840Z,14.02
2023-03-17T16:22:34.888Z,13.94
2023-03-17T16:25:01.747Z,13.92
2023-03-17T16:27:28.557Z,13.84
2023-03-17T16:29:55.283Z,13.85
2023-03-17T16:32:22.193Z,13.85
2023-03-17T16:34:48.950Z,13.80
2023-03-17T16:37:16.475Z,13.89
2023-03-17T16:39:43.540Z,13.87
2023-03-17T16:42:23.424Z,13.83
2023-03-17T16:44:50.734Z,13.80
2023-03-17T16:47:17.731Z,13.74
2023-03-17T16:49:44.512Z,13.70
2023-03-17T16:52:12.288Z,13.65
2023-03-17T16:54:38.979Z,13.65
2023-03-17T16:57:07.864Z,13.65
2023-03-17T16:59:34.782Z,13.60
2023-03-17T17:02:02.277Z,13.57
2023-03-17T17:04:29.250Z,13.55
2023-03-17T17:06:56.983Z,13.46
2023-03-17T17:09:24.425Z,13.39
2023-03-17T17:11:51.068Z,13.49
2023-03-17T17:14:17.940Z,13.44
2023-03-17T17:16:44.732Z,13.40
2023-03-17T17:19:16.794Z,13.25
2023-03-17T17:21:44.135Z,13.38
2023-03-17T17:24:12.701Z,13.36
2023-03-17T17:26:40.002Z,13.50
2023-03-17T17:29:06.809Z,13.55
2023-03-17T17:31:33.654Z,13.49
2023-03-17T17:34:00.470Z,13.41
2023-03-17T17:36:27.348Z,13.35
2023-03-17T17:38:54.242Z,13.27
2023-03-17T17:41:23.969Z,13.22
2023-03-17T17:43:50.684Z,13.18
2023-03-17T17:46:20.208Z,13.33
2023-03-17T17:48:47.438Z,13.23
2023-03-17T17:51:14.400Z,13.04
2023-03-17T17:53:41.315Z,13.03
2023-03-17T17:56:08.496Z,12.90
2023-03-17T17:58:35.220Z,12.89
2023-03-17T18:01:03.676Z,12.80
2023-03-17T18:03:32.139Z,12.69
2023-03-17T18:06:01.137Z,12.72
2023-03-17T18:08:28.125Z,12.59
2023-03-17T18:10:56.815Z,12.52
2023-03-17T18:13:23.842Z,12.50
2023-03-17T18:15:50.697Z,12.41
2023-03-17T18:18:17.859Z,12.37
2023-03-17T18:20:47.385Z,12.30
2023-03-17T18:23:16.234Z,12.23
2023-03-17T18:25:43.073Z,12.17
2023-03-17T18:28:09.779Z,12.06
2023-03-17T18:30:36.546Z,12.05
2023-03-17T18:33:09.668Z,12.02
2023-03-17T18:35:36.763Z,11.94
2023-03-17T18:38:03.529Z,11.88
2023-03-17T18:40:30.290Z,11.85
2023-03-17T18:42:57.129Z,11.75
2023-03-17T18:45:24.029Z,11.75
2023-03-17T18:47:50.836Z,11.70
2023-03-17T18:50:18.496Z,11.59
2023-03-17T18:52:46.072Z,11.61
2023-03-17T18:55:13.808Z,11.54
2023-03-17T18:57:43.134Z,11.49
2023-03-17T19:00:12.291Z,11.44
2023-03-17T19:02:39.170Z,11.37
2023-03-17T19:05:06.666Z,11.32
2023-03-17T19:07:33.564Z,11.33
2023-03-17T19:10:00.478Z,11.28
2023-03-17T19:12:27.596Z,11.14
2023-03-17T19:14:54.352Z,11.11
2023-03-17T19:17:21.118Z,11.10
2023-03-17T19:19:50.457Z,11.02
2023-03-17T19:22:17.160Z,10.96
2023-03-17T19:24:44.400Z,10.92
2023-03-17T19:27:11.207Z,10.94
2023-03-17T19:29:37.869Z,10.90
2023-03-17T19:32:04.630Z,10.88
2023-03-17T19:34:31.387Z,10.78
2023-03-17T19:36:58.846Z,10.86
2023-03-17T19:39:27.725Z,10.83
2023-03-17T19:41:55.442Z,10.77
2023-03-17T19:44:22.566Z,10.61
2023-03-17T19:46:50.290Z,10.65
2023-03-17T19:49:18.021Z,10.67
2023-03-17T19:51:47.745Z,10.58
2023-03-17T19:54:14.636Z,10.58
2023-03-17T19:56:41.690Z,10.63
2023-03-17T19:59:09.170Z,10.52
2023-03-17T20:01:38.157Z,10.47
2023-03-17T20:04:07.173Z,10.53
2023-03-17T20:06:34.859Z,10.35
2023-03-17T20:09:04.503Z,10.40
2023-03-17T20:11:34.159Z,10.27
2023-03-17T20:14:02.052Z,10.28
2023-03-17T20:16:32.109Z,10.21
2023-03-17T20:18:59.543Z,10.12
2023-03-17T20:21:26.653Z,10.21
2023-03-17T20:23:53.667Z,10.29
2023-03-17T20:26:29.078Z,10.21
2023-03-17T20:28:56.659Z,10.19
2023-03-17T20:31:23.751Z,9.99
2023-03-17T20:33:50.712Z,9.98
2023-03-17T20:36:17.480Z,10.02
2023-03-17T20:38:44.115Z,10.05
2023-03-17T20:41:13.885Z,9.98
2023-03-17T20:43:40.970Z,10.10
2023-03-17T20:46:09.261Z,10.16
2023-03-17T20:48:37.359Z,10.02
2023-03-17T20:51:05.816Z,9.96
2023-03-17T20:53:34.486Z,10.02
2023-03-17T20:56:01.207Z,9.83
2023-03-17T20:58:28.020Z,9.85
2023-03-17T21:00:55.107Z,9.78
2023-03-17T21:03:21.940Z,9.72
2023-03-17T21:05:48.553Z,9.73
2023-03-17T21:08:15.181Z,9.70
2023-03-17T21:10:42.010Z,9.66
2023-03-17T21:13:09.140Z,9.70
2023-03-17T21:15:36.446Z,9.76
2023-03-17T21:18:03.361Z,9.69
2023-03-17T21:20:30.400Z,9.63
2023-03-17T21:22:57.609Z,9.62
2023-03-17T21:25:24.252Z,9.67
2023-03-17T21:27:51.036Z,9.69
2023-03-17T21:30:17.850Z,9.69
2023-03-17T21:32:44.695Z,9.63
2023-03-17T21:35:11.952Z,9.62
2023-03-17T21:37:38.631Z,9.63
2023-03-17T21:40:06.999Z,9.60
2023-03-17T21:42:34.722Z,9.52
2023-03-17T21:45:01.377Z,9.56
2023-03-17T21:47:30.225Z,9.48
2023-03-17T21:49:58.219Z,9.47
2023-03-17T21:52:25.433Z,9.37
2023-03-17T21:54:52.132Z,9.26
2023-03-17T21:57:18.953Z,9.22
2023-03-17T21:59:45.760Z,9.24
2023-03-17T22:02:12.912Z,9.15
2023-03-17T22:04:41.777Z,9.22
2023-03-17T22:07:08.725Z,9.20
2023-03-17T22:09:36.307Z,9.07
2023-03-17T22:12:04.424Z,8.89
2023-03-17T22:14:31.400Z,8.80
2023-03-17T22:16:58.069Z,8.93
2023-03-17T22:19:24.836Z,9.02
2023-03-17T22:21:51.933Z,9.00
2023-03-17T22:24:19.000Z,8.99
2023-03-17T22:26:45.953Z,8.99
2023-03-17T22:29:12.649Z,8.86
2023-03-17T22:31:39.883Z,8.86
2023-03-17T22:34:06.780Z,8.85
2023-03-17T22:36:33.683Z,8.74
2023-03-17T22:39:00.427Z,8.76
2023-03-17T22:41:29.465Z,8.67
2023-03-17T22:43:56.256Z,8.70
2023-03-17T22:46:23.741Z,8.71
2023-03-17T22:48:51.983Z,8.56
2023-03-17T22:51:21.629Z,8.62
2023-03-17T22:53:48.439Z,8.60
2023-03-17T22:56:16.602Z,8.66
2023-03-17T22:58:43.905Z,8.68
2023-03-17T23:01:13.704Z,8.56
2023-03-17T23:03:41.162Z,8.68
2023-03-17T23:06:08.822Z,8.55
2023-03-17T23:08:37.477Z,8.59
2023-03-17T23:11:10.789Z,8.61
2023-03-17T23:13:38.075Z,8.78
2023-03-17T23:16:05.158Z,8.60
2023-03-17T23:18:34.042Z,8.56
2023-03-17T23:21:01.762Z,8.61
2023-03-17T23:23:28.695Z,8.53
2023-03-17T23:25:55.285Z,8.43
2023-03-17T23:28:22.208Z,8.44
2023-03-17T23:30:48.967Z,8.48
2023-03-17T23:33:17.641Z,8.56
2023-03-17T23:35:46.235Z,8.56
2023-03-17T23:38:13.217Z,8.38
2023-03-17T23:40:39.937Z,8.35
2023-03-17T23:43:06.779Z,8.48
2023-03-17T23:45:35.213Z,8.46
2023-03-17T23:48:03.096Z,8.47
2023-03-17T23:50:30.423Z,8.43
2023-03-17T23:52:57.276Z,8.41
2023-03-17T23:55:24.396Z,8.30
2023-03-17T23:57:51.044Z,8.31
